sensor_id;sensor_type;location;lat;lon;timestamp;pressure;altitude;pressure_sealevel;temperature;humidity
37238;BME280;23129;49.662;8.448;2024-01-30T00:00:26;102127.66;;;2.14;100.00
37238;BME280;23129;49.662;8.448;2024-01-30T00:02:54;102125.03;;;2.13;100.00
37238;BME280;23129;49.662;8.448;2024-01-30T00:05:24;102127.66;;;2.14;100.00
37238;BME280;23129;49.662;8.448;2024-01-30T00:07:52;102124.22;;;2.15;100.00
37238;BME280;23129;49.662;8.448;2024-01-30T00:10:21;102118.13;;;2.13;100.00
37238;BME280;23129;49.662;8.448;2024-01-30T00:12:51;102118.06;;;2.12;100.00
37238;BME280;23129;49.662;8.448;2024-01-30T00:15:20;102119.66;;;2.07;100.00
37238;BME280;23129;49.662;8.448;2024-01-30T00:17:48;102117.75;;;2.02;100.00
37238;BME280;23129;49.662;8.448;2024-01-30T00:20:20;102122.84;;;1.99;100.00
37238;BME280;23129;49.662;8.448;2024-01-30T00:22:49;102125.38;;;1.98;100.00
37238;BME280;23129;49.662;8.448;2024-01-30T00:25:18;102129.63;;;1.96;100.00
37238;BME280;23129;49.662;8.448;2024-01-30T00:27:47;102137.38;;;1.96;100.00
37238;BME280;23129;49.662;8.448;2024-01-30T00:30:20;102125.22;;;1.93;100.00
37238;BME280;23129;49.662;8.448;2024-01-30T00:32:49;102129.50;;;1.93;100.00
37238;BME280;23129;49.662;8.448;2024-01-30T00:35:18;102132.09;;;1.93;100.00
37238;BME280;23129;49.662;8.448;2024-01-30T00:37:47;102123.41;;;1.91;100.00
37238;BME280;23129;49.662;8.448;2024-01-30T00:40:16;102126.81;;;1.90;100.00
37238;BME280;23129;49.662;8.448;2024-01-30T00:42:45;102138.00;;;1.89;100.00
37238;BME280;23129;49.662;8.448;2024-01-30T00:45:14;102130.25;;;1.89;100.00
37238;BME280;23129;49.662;8.448;2024-01-30T00:47:45;102138.78;;;1.86;100.00
37238;BME280;23129;49.662;8.448;2024-01-30T00:50:13;102134.41;;;1.85;100.00
37238;BME280;23129;49.662;8.448;2024-01-30T00:52:42;102138.69;;;1.85;100.00
37238;BME280;23129;49.662;8.448;2024-01-30T00:55:12;102129.19;;;1.83;100.00
37238;BME280;23129;49.662;8.448;2024-01-30T00:57:41;102135.22;;;1.82;100.00
37238;BME280;23129;49.662;8.448;2024-01-30T01:00:13;102137.78;;;1.82;100.00
37238;BME280;23129;49.662;8.448;2024-01-30T01:02:45;102131.69;;;1.80;100.00
37238;BME280;23129;49.662;8.448;2024-01-30T01:05:14;102128.97;;;1.77;100.00
37238;BME280;23129;49.662;8.448;2024-01-30T01:07:43;102128.97;;;1.77;100.00
37238;BME280;23129;49.662;8.448;2024-01-30T01:10:16;102130.63;;;1.75;100.00
37238;BME280;23129;49.662;8.448;2024-01-30T01:13:32;102127.16;;;1.75;100.00
37238;BME280;23129;49.662;8.448;2024-01-30T01:16:58;102129.69;;;1.73;100.00
37238;BME280;23129;49.662;8.448;2024-01-30T01:19:28;102133.16;;;1.74;100.00
37238;BME280;23129;49.662;8.448;2024-01-30T01:21:57;102131.34;;;1.71;100.00
37238;BME280;23129;49.662;8.448;2024-01-30T01:24:26;102137.22;;;1.67;100.00
37238;BME280;23129;49.662;8.448;2024-01-30T01:26:54;102138.81;;;1.64;100.00
37238;BME280;23129;49.662;8.448;2024-01-30T01:29:24;102136.13;;;1.60;100.00
37238;BME280;23129;49.662;8.448;2024-01-30T01:31:56;102136.09;;;1.59;100.00
37238;BME280;23129;49.662;8.448;2024-01-30T01:34:24;102134.28;;;1.56;100.00
37238;BME280;23129;49.662;8.448;2024-01-30T01:36:58;102135.88;;;1.53;100.00
37238;BME280;23129;49.662;8.448;2024-01-30T01:39:27;102137.50;;;1.51;100.00
37238;BME280;23129;49.662;8.448;2024-01-30T01:41:56;102132.34;;;1.51;100.00
37238;BME280;23129;49.662;8.448;2024-01-30T01:44:24;102140.03;;;1.49;100.00
37238;BME280;23129;49.662;8.448;2024-01-30T01:46:54;102133.09;;;1.48;100.00
37238;BME280;23129;49.662;8.448;2024-01-30T01:49:24;102133.84;;;1.46;100.00
37238;BME280;23129;49.662;8.448;2024-01-30T01:51:55;102134.69;;;1.45;100.00
37238;BME280;23129;49.662;8.448;2024-01-30T01:54:26;102130.38;;;1.44;100.00
37238;BME280;23129;49.662;8.448;2024-01-30T01:56:56;102122.53;;;1.42;100.00
37238;BME280;23129;49.662;8.448;2024-01-30T01:59:25;102127.78;;;1.44;100.00
37238;BME280;23129;49.662;8.448;2024-01-30T02:01:56;102129.53;;;1.45;100.00
37238;BME280;23129;49.662;8.448;2024-01-30T02:04:25;102125.19;;;1.44;100.00
37238;BME280;23129;49.662;8.448;2024-01-30T02:06:54;102125.03;;;1.41;100.00
37238;BME280;23129;49.662;8.448;2024-01-30T02:09:22;102133.53;;;1.36;100.00
37238;BME280;23129;49.662;8.448;2024-01-30T02:11:52;102134.25;;;1.32;100.00
37238;BME280;23129;49.662;8.448;2024-01-30T02:14:21;102133.19;;;1.27;100.00
37238;BME280;23129;49.662;8.448;2024-01-30T02:16:51;102127.91;;;1.24;100.00
37238;BME280;23129;49.662;8.448;2024-01-30T02:19:20;102127.91;;;1.24;100.00
37238;BME280;23129;49.662;8.448;2024-01-30T02:21:50;102130.50;;;1.24;100.00
37238;BME280;23129;49.662;8.448;2024-01-30T02:24:19;102123.50;;;1.22;100.00
37238;BME280;23129;49.662;8.448;2024-01-30T02:26:48;102124.34;;;1.21;100.00
37238;BME280;23129;49.662;8.448;2024-01-30T02:29:17;102127.78;;;1.21;100.00
37238;BME280;23129;49.662;8.448;2024-01-30T02:31:45;102119.09;;;1.19;100.00
37238;BME280;23129;49.662;8.448;2024-01-30T02:34:14;102125.91;;;1.17;100.00
37238;BME280;23129;49.662;8.448;2024-01-30T02:36:43;102125.00;;;1.17;100.00
37238;BME280;23129;49.662;8.448;2024-01-30T02:39:13;102124.13;;;1.16;100.00
37238;BME280;23129;49.662;8.448;2024-01-30T02:41:42;102128.44;;;1.16;100.00
37238;BME280;23129;49.662;8.448;2024-01-30T02:44:10;102119.72;;;1.13;100.00
37238;BME280;23129;49.662;8.448;2024-01-30T02:46:39;102129.19;;;1.13;100.00
37238;BME280;23129;49.662;8.448;2024-01-30T02:49:07;102128.31;;;1.12;100.00
37238;BME280;23129;49.662;8.448;2024-01-30T02:51:37;102129.06;;;1.10;100.00
37238;BME280;23129;49.662;8.448;2024-01-30T02:54:06;102135.00;;;1.07;100.00
37238;BME280;23129;49.662;8.448;2024-01-30T02:56:36;102132.38;;;1.06;100.00
37238;BME280;23129;49.662;8.448;2024-01-30T02:59:04;102128.84;;;1.04;100.00
37238;BME280;23129;49.662;8.448;2024-01-30T03:01:33;102126.22;;;1.02;100.00
37238;BME280;23129;49.662;8.448;2024-01-30T03:04:10;102117.59;;;1.02;100.00
37238;BME280;23129;49.662;8.448;2024-01-30T03:06:44;102125.19;;;0.99;100.00
37238;BME280;23129;49.662;8.448;2024-01-30T03:09:13;102116.41;;;0.94;100.00
37238;BME280;23129;49.662;8.448;2024-01-30T03:11:43;102118.03;;;0.91;100.00
37238;BME280;23129;49.662;8.448;2024-01-30T03:14:11;102117.94;;;0.88;100.00
37238;BME280;23129;49.662;8.448;2024-01-30T03:16:40;102117.06;;;0.88;100.00
37238;BME280;23129;49.662;8.448;2024-01-30T03:19:09;102113.63;;;0.89;100.00
37238;BME280;23129;49.662;8.448;2024-01-30T03:21:38;102117.16;;;0.91;100.00
37238;BME280;23129;49.662;8.448;2024-01-30T03:24:09;102114.50;;;0.89;100.00
37238;BME280;23129;49.662;8.448;2024-01-30T03:26:38;102116.97;;;0.86;100.00
37238;BME280;23129;49.662;8.448;2024-01-30T03:29:08;102116.06;;;0.84;100.00
37238;BME280;23129;49.662;8.448;2024-01-30T03:31:36;102112.53;;;0.82;100.00
37238;BME280;23129;49.662;8.448;2024-01-30T03:34:05;102113.41;;;0.83;100.00
37238;BME280;23129;49.662;8.448;2024-01-30T03:36:34;102117.69;;;0.82;100.00
37238;BME280;23129;49.662;8.448;2024-01-30T03:39:02;102119.19;;;0.77;100.00
37238;BME280;23129;49.662;8.448;2024-01-30T03:41:31;102122.63;;;0.76;100.00
37238;BME280;23129;49.662;8.448;2024-01-30T03:44:01;102118.31;;;0.77;100.00
37238;BME280;23129;49.662;8.448;2024-01-30T03:46:31;102126.03;;;0.75;100.00
37238;BME280;23129;49.662;8.448;2024-01-30T03:49:00;102117.50;;;0.78;100.00
37238;BME280;23129;49.662;8.448;2024-01-30T03:51:28;102112.41;;;0.79;100.00
37238;BME280;23129;49.662;8.448;2024-01-30T03:53:58;102115.06;;;0.81;100.00
37238;BME280;23129;49.662;8.448;2024-01-30T03:56:27;102119.44;;;0.83;100.00
37238;BME280;23129;49.662;8.448;2024-01-30T03:58:55;102113.53;;;0.86;100.00
37238;BME280;23129;49.662;8.448;2024-01-30T04:01:26;102116.19;;;0.87;100.00
37238;BME280;23129;49.662;8.448;2024-01-30T04:03:56;102113.72;;;0.90;100.00
37238;BME280;23129;49.662;8.448;2024-01-30T04:06:25;102112.00;;;0.91;100.00
37238;BME280;23129;49.662;8.448;2024-01-30T04:08:54;102110.28;;;0.91;100.00
37238;BME280;23129;49.662;8.448;2024-01-30T04:11:23;102112.03;;;0.93;100.00
37238;BME280;23129;49.662;8.448;2024-01-30T04:13:51;102111.13;;;0.90;100.00
37238;BME280;23129;49.662;8.448;2024-01-30T04:16:21;102116.28;;;0.90;100.00
37238;BME280;23129;49.662;8.448;2024-01-30T04:18:51;102111.88;;;0.88;100.00
37238;BME280;23129;49.662;8.448;2024-01-30T04:21:22;102106.66;;;0.86;100.00
37238;BME280;23129;49.662;8.448;2024-01-30T04:23:51;102108.44;;;0.87;100.00
37238;BME280;23129;49.662;8.448;2024-01-30T04:26:20;102110.06;;;0.85;100.00
37238;BME280;23129;49.662;8.448;2024-01-30T04:28:48;102104.97;;;0.87;100.00
37238;BME280;23129;49.662;8.448;2024-01-30T04:31:17;102101.47;;;0.86;100.00
37238;BME280;23129;49.662;8.448;2024-01-30T04:33:46;102112.75;;;0.88;100.00
37238;BME280;23129;49.662;8.448;2024-01-30T04:36:14;102114.50;;;0.89;100.00
37238;BME280;23129;49.662;8.448;2024-01-30T04:38:44;102112.75;;;0.88;100.00
37238;BME280;23129;49.662;8.448;2024-01-30T04:41:13;102114.50;;;0.89;100.00
37238;BME280;23129;49.662;8.448;2024-01-30T04:43:42;102112.75;;;0.88;100.00
37238;BME280;23129;49.662;8.448;2024-01-30T04:46:10;102114.47;;;0.88;100.00
37238;BME280;23129;49.662;8.448;2024-01-30T04:48:39;102113.59;;;0.87;100.00
37238;BME280;23129;49.662;8.448;2024-01-30T04:51:08;102114.41;;;0.86;100.00
37238;BME280;23129;49.662;8.448;2024-01-30T04:53:37;102119.56;;;0.86;100.00
37238;BME280;23129;49.662;8.448;2024-01-30T04:56:08;102110.13;;;0.87;100.00
37238;BME280;23129;49.662;8.448;2024-01-30T04:58:37;102108.34;;;0.86;100.00
37238;BME280;23129;49.662;8.448;2024-01-30T05:01:05;102114.28;;;0.83;100.00
37238;BME280;23129;49.662;8.448;2024-01-30T05:03:34;102117.56;;;0.79;100.00
37238;BME280;23129;49.662;8.448;2024-01-30T05:06:04;102114.75;;;0.73;100.00
37238;BME280;23129;49.662;8.448;2024-01-30T05:08:33;102118.97;;;0.71;100.00
37238;BME280;23129;49.662;8.448;2024-01-30T05:11:04;102117.09;;;0.67;100.00
37238;BME280;23129;49.662;8.448;2024-01-30T05:13:34;102124.84;;;0.67;100.00
37238;BME280;23129;49.662;8.448;2024-01-30T05:16:04;102120.50;;;0.66;100.00
37238;BME280;23129;49.662;8.448;2024-01-30T05:18:33;102120.63;;;0.69;100.00
37238;BME280;23129;49.662;8.448;2024-01-30T05:21:02;102123.22;;;0.69;100.00
37238;BME280;23129;49.662;8.448;2024-01-30T05:23:31;102130.13;;;0.70;100.00
37238;BME280;23129;49.662;8.448;2024-01-30T05:26:00;102126.66;;;0.70;100.00
37238;BME280;23129;49.662;8.448;2024-01-30T05:28:30;102135.16;;;0.67;100.00
37238;BME280;23129;49.662;8.448;2024-01-30T05:31:00;102129.88;;;0.64;100.00
37238;BME280;23129;49.662;8.448;2024-01-30T05:33:28;102125.56;;;0.63;100.00
37238;BME280;23129;49.662;8.448;2024-01-30T05:35:57;102134.09;;;0.62;100.00
37238;BME280;23129;49.662;8.448;2024-01-30T05:38:26;102129.69;;;0.59;100.00
37238;BME280;23129;49.662;8.448;2024-01-30T05:40:57;102132.22;;;0.58;100.00
37238;BME280;23129;49.662;8.448;2024-01-30T05:43:26;102129.81;;;0.62;100.00
37238;BME280;23129;49.662;8.448;2024-01-30T05:45:55;102133.41;;;0.66;100.00
37238;BME280;23129;49.662;8.448;2024-01-30T05:48:25;102132.72;;;0.70;100.00
37238;BME280;23129;49.662;8.448;2024-01-30T05:50:54;102129.28;;;0.71;100.00
37238;BME280;23129;49.662;8.448;2024-01-30T05:53:23;102132.81;;;0.73;100.00
37238;BME280;23129;49.662;8.448;2024-01-30T05:55:51;102130.28;;;0.75;100.00
37238;BME280;23129;49.662;8.448;2024-01-30T05:58:20;102133.78;;;0.75;100.00
37238;BME280;23129;49.662;8.448;2024-01-30T06:00:48;102131.31;;;0.78;100.00
37238;BME280;23129;49.662;8.448;2024-01-30T06:03:17;102134.69;;;0.77;100.00
37238;BME280;23129;49.662;8.448;2024-01-30T06:05:47;102127.78;;;0.76;100.00
37238;BME280;23129;49.662;8.448;2024-01-30T06:08:16;102132.81;;;0.73;100.00
37238;BME280;23129;49.662;8.448;2024-01-30T06:10:44;102134.47;;;0.71;100.00
37238;BME280;23129;49.662;8.448;2024-01-30T06:13:13;102135.16;;;0.67;100.00
37238;BME280;23129;49.662;8.448;2024-01-30T06:15:42;102144.53;;;0.65;100.00
37238;BME280;23129;49.662;8.448;2024-01-30T06:18:10;102143.63;;;0.63;100.00
37238;BME280;23129;49.662;8.448;2024-01-30T06:20:39;102142.66;;;0.61;100.00
37238;BME280;23129;49.662;8.448;2024-01-30T06:23:09;102135.72;;;0.60;100.00
37238;BME280;23129;49.662;8.448;2024-01-30T06:25:40;102141.66;;;0.57;100.00
37238;BME280;23129;49.662;8.448;2024-01-30T06:28:09;102133.84;;;0.56;100.00
37238;BME280;23129;49.662;8.448;2024-01-30T06:30:37;102131.22;;;0.54;100.00
37238;BME280;23129;49.662;8.448;2024-01-30T06:33:06;102138.88;;;0.53;100.00
37238;BME280;23129;49.662;8.448;2024-01-30T06:35:35;102137.25;;;0.55;100.00
37238;BME280;23129;49.662;8.448;2024-01-30T06:38:12;102135.59;;;0.57;100.00
37238;BME280;23129;49.662;8.448;2024-01-30T06:40:43;102129.69;;;0.59;100.00
37238;BME280;23129;49.662;8.448;2024-01-30T06:43:11;102128.94;;;0.62;100.00
37238;BME280;23129;49.662;8.448;2024-01-30T06:45:40;102122.13;;;0.64;100.00
37238;BME280;23129;49.662;8.448;2024-01-30T06:48:09;102130.97;;;0.69;100.00
37238;BME280;23129;49.662;8.448;2024-01-30T06:50:38;102141.41;;;0.72;100.00
37238;BME280;23129;49.662;8.448;2024-01-30T06:53:07;102136.38;;;0.75;100.00
37238;BME280;23129;49.662;8.448;2024-01-30T06:55:37;102139.88;;;0.77;100.00
37238;BME280;23129;49.662;8.448;2024-01-30T06:58:06;102143.53;;;0.82;100.00
37238;BME280;23129;49.662;8.448;2024-01-30T07:00:35;102137.63;;;0.86;100.00
37238;BME280;23129;49.662;8.448;2024-01-30T07:03:04;102136.19;;;0.93;100.00
37238;BME280;23129;49.662;8.448;2024-01-30T07:05:33;102138.94;;;0.98;100.00
37238;BME280;23129;49.662;8.448;2024-01-30T07:08:02;102143.44;;;1.02;100.00
37238;BME280;23129;49.662;8.448;2024-01-30T07:10:30;102142.63;;;1.04;100.00
37238;BME280;23129;49.662;8.448;2024-01-30T07:13:02;102142.84;;;1.09;100.00
37238;BME280;23129;49.662;8.448;2024-01-30T07:15:31;102140.28;;;1.10;100.00
37238;BME280;23129;49.662;8.448;2024-01-30T07:18:00;102142.13;;;1.13;100.00
37238;BME280;23129;49.662;8.448;2024-01-30T07:20:29;102146.41;;;1.12;100.00
37238;BME280;23129;49.662;8.448;2024-01-30T07:22:59;102146.41;;;1.12;100.00
37238;BME280;23129;49.662;8.448;2024-01-30T07:25:28;102147.16;;;1.10;100.00
37238;BME280;23129;49.662;8.448;2024-01-30T07:27:57;102142.84;;;1.09;100.00
37238;BME280;23129;49.662;8.448;2024-01-30T07:30:27;102139.31;;;1.07;100.00
37238;BME280;23129;49.662;8.448;2024-01-30T07:32:56;102151.34;;;1.06;100.00
37238;BME280;23129;49.662;8.448;2024-01-30T07:35:24;102148.72;;;1.05;100.00
37238;BME280;23129;49.662;8.448;2024-01-30T07:37:53;102151.31;;;1.05;100.00
37238;BME280;23129;49.662;8.448;2024-01-30T07:40:21;102154.81;;;1.07;100.00
37238;BME280;23129;49.662;8.448;2024-01-30T07:42:53;102156.59;;;1.08;100.00
37238;BME280;23129;49.662;8.448;2024-01-30T07:45:22;102167.84;;;1.10;100.00
37238;BME280;23129;49.662;8.448;2024-01-30T07:47:53;102163.66;;;1.13;100.00
37238;BME280;23129;49.662;8.448;2024-01-30T07:50:22;102156.13;;;1.20;100.00
37238;BME280;23129;49.662;8.448;2024-01-30T07:52:50;102155.63;;;1.28;100.00
37238;BME280;23129;49.662;8.448;2024-01-30T08:02:49;102168.88;;;1.60;100.00
37238;BME280;23129;49.662;8.448;2024-01-30T08:05:19;102168.44;;;1.72;100.00
37238;BME280;23129;49.662;8.448;2024-01-30T08:07:50;102176.72;;;1.86;100.00
37238;BME280;23129;49.662;8.448;2024-01-30T08:10:19;102175.34;;;1.97;100.00
37238;BME280;23129;49.662;8.448;2024-01-30T08:12:48;102180.09;;;2.09;100.00
37238;BME280;23129;49.662;8.448;2024-01-30T08:15:17;102181.38;;;2.21;100.00
37238;BME280;23129;49.662;8.448;2024-01-30T08:17:45;102185.41;;;2.37;100.00
37238;BME280;23129;49.662;8.448;2024-01-30T08:20:14;102183.34;;;2.54;100.00
37238;BME280;23129;49.662;8.448;2024-01-30T08:22:45;102183.88;;;2.69;100.00
37238;BME280;23129;49.662;8.448;2024-01-30T08:25:14;102185.19;;;2.84;100.00
37238;BME280;23129;49.662;8.448;2024-01-30T08:27:43;102183.91;;;2.98;100.00
37238;BME280;23129;49.662;8.448;2024-01-30T08:30:13;102178.28;;;3.11;100.00
37238;BME280;23129;49.662;8.448;2024-01-30T08:32:41;102182.16;;;3.26;100.00
37238;BME280;23129;49.662;8.448;2024-01-30T08:35:11;102173.84;;;3.36;100.00
37238;BME280;23129;49.662;8.448;2024-01-30T08:37:41;102176.69;;;3.45;100.00
37238;BME280;23129;49.662;8.448;2024-01-30T08:40:12;102164.84;;;3.53;100.00
37238;BME280;23129;49.662;8.448;2024-01-30T08:42:40;102174.47;;;3.59;100.00
37238;BME280;23129;49.662;8.448;2024-01-30T08:45:10;102172.03;;;3.63;100.00
37238;BME280;23129;49.662;8.448;2024-01-30T08:47:40;102170.47;;;3.69;100.00
37238;BME280;23129;49.662;8.448;2024-01-30T08:50:09;102173.13;;;3.72;100.00
37238;BME280;23129;49.662;8.448;2024-01-30T08:52:38;102161.91;;;3.73;100.00
37238;BME280;23129;49.662;8.448;2024-01-30T08:55:07;102166.25;;;3.74;100.00
37238;BME280;23129;49.662;8.448;2024-01-30T08:57:37;102166.34;;;3.77;100.00
37238;BME280;23129;49.662;8.448;2024-01-30T09:00:06;102167.28;;;3.79;100.00
37238;BME280;23129;49.662;8.448;2024-01-30T09:02:36;102176.94;;;3.83;100.00
37238;BME280;23129;49.662;8.448;2024-01-30T09:05:05;102185.69;;;3.88;100.00
37238;BME280;23129;49.662;8.448;2024-01-30T09:07:35;102183.25;;;3.94;100.00
37238;BME280;23129;49.662;8.448;2024-01-30T09:10:05;102183.44;;;4.00;100.00
37238;BME280;23129;49.662;8.448;2024-01-30T09:12:37;102173.22;;;4.06;100.00
37238;BME280;23129;49.662;8.448;2024-01-30T09:15:07;102169.97;;;4.14;100.00
37238;BME280;23129;49.662;8.448;2024-01-30T09:17:36;102170.19;;;4.23;100.00
37238;BME280;23129;49.662;8.448;2024-01-30T09:20:05;102175.63;;;4.32;100.00
37238;BME280;23129;49.662;8.448;2024-01-30T09:22:35;102177.59;;;4.42;100.00
37238;BME280;23129;49.662;8.448;2024-01-30T09:25:04;102176.16;;;4.53;100.00
37238;BME280;23129;49.662;8.448;2024-01-30T09:27:33;102179.03;;;4.64;100.00
37238;BME280;23129;49.662;8.448;2024-01-30T09:30:03;102176.75;;;4.78;100.00
37238;BME280;23129;49.662;8.448;2024-01-30T09:32:32;102178.91;;;4.94;100.00
37238;BME280;23129;49.662;8.448;2024-01-30T09:35:01;102181.00;;;5.11;100.00
37238;BME280;23129;49.662;8.448;2024-01-30T09:37:30;102174.38;;;5.25;100.00
37238;BME280;23129;49.662;8.448;2024-01-30T09:40:00;102179.03;;;5.40;100.00
37238;BME280;23129;49.662;8.448;2024-01-30T09:42:34;102169.63;;;5.46;100.00
37238;BME280;23129;49.662;8.448;2024-01-30T09:45:06;102175.88;;;5.56;100.00
37238;BME280;23129;49.662;8.448;2024-01-30T09:47:39;102191.81;;;5.70;100.00
37238;BME280;23129;49.662;8.448;2024-01-30T09:50:09;102188.56;;;5.82;100.00
37238;BME280;23129;49.662;8.448;2024-01-30T09:52:39;102190.56;;;5.93;100.00
37238;BME280;23129;49.662;8.448;2024-01-30T09:55:08;102184.78;;;6.10;100.00
37238;BME280;23129;49.662;8.448;2024-01-30T09:57:37;102176.44;;;6.26;100.00
37238;BME280;23129;49.662;8.448;2024-01-30T10:00:08;102171.47;;;6.42;100.00
37238;BME280;23129;49.662;8.448;2024-01-30T10:02:41;102186.56;;;6.61;100.00
37238;BME280;23129;49.662;8.448;2024-01-30T10:05:10;102175.50;;;6.76;100.00
37238;BME280;23129;49.662;8.448;2024-01-30T10:07:52;102180.94;;;6.88;100.00
37238;BME280;23129;49.662;8.448;2024-01-30T10:10:22;102182.69;;;6.91;100.00
37238;BME280;23129;49.662;8.448;2024-01-30T10:12:52;102179.22;;;6.89;100.00
37238;BME280;23129;49.662;8.448;2024-01-30T10:15:22;102178.19;;;6.80;100.00
37238;BME280;23129;49.662;8.448;2024-01-30T10:17:50;102174.72;;;6.80;100.00
37238;BME280;23129;49.662;8.448;2024-01-30T10:20:19;102169.56;;;6.84;100.00
37238;BME280;23129;49.662;8.448;2024-01-30T10:22:50;102167.00;;;6.88;100.00
37238;BME280;23129;49.662;8.448;2024-01-30T10:25:18;102178.38;;;6.91;100.00
37238;BME280;23129;49.662;8.448;2024-01-30T10:27:52;102171.47;;;6.96;100.00
37238;BME280;23129;49.662;8.448;2024-01-30T10:30:22;102178.59;;;7.06;100.00
37238;BME280;23129;49.662;8.448;2024-01-30T10:32:51;102178.66;;;7.11;100.00
37238;BME280;23129;49.662;8.448;2024-01-30T10:35:20;102172.59;;;7.12;100.00
37238;BME280;23129;49.662;8.448;2024-01-30T10:37:49;102176.00;;;7.08;100.00
37238;BME280;23129;49.662;8.448;2024-01-30T10:40:18;102174.31;;;7.10;100.00
37238;BME280;23129;49.662;8.448;2024-01-30T10:42:50;102177.78;;;7.09;100.00
37238;BME280;23129;49.662;8.448;2024-01-30T10:45:27;102172.63;;;7.15;100.00
37238;BME280;23129;49.662;8.448;2024-01-30T10:48:00;102164.31;;;7.44;100.00
37238;BME280;23129;49.662;8.448;2024-01-30T10:50:31;102160.97;;;7.54;100.00
37238;BME280;23129;49.662;8.448;2024-01-30T10:53:04;102166.25;;;7.57;100.00
37238;BME280;23129;49.662;8.448;2024-01-30T10:55:34;102152.34;;;7.61;100.00
37238;BME280;23129;49.662;8.448;2024-01-30T10:58:03;102164.63;;;7.70;100.00
37238;BME280;23129;49.662;8.448;2024-01-30T11:00:34;102163.16;;;7.95;100.00
37238;BME280;23129;49.662;8.448;2024-01-30T11:03:03;102158.41;;;8.39;100.00
37238;BME280;23129;49.662;8.448;2024-01-30T11:05:33;102157.97;;;8.93;100.00
37238;BME280;23129;49.662;8.448;2024-01-30T11:08:11;102162.50;;;9.26;100.00
37238;BME280;23129;49.662;8.448;2024-01-30T11:10:47;102161.75;;;9.50;100.00
37238;BME280;23129;49.662;8.448;2024-01-30T11:13:18;102160.94;;;9.66;100.00
37238;BME280;23129;49.662;8.448;2024-01-30T11:15:49;102166.19;;;9.71;100.00
37238;BME280;23129;49.662;8.448;2024-01-30T11:18:24;102166.25;;;9.83;100.00
37238;BME280;23129;49.662;8.448;2024-01-30T11:20:56;102162.81;;;10.09;100.00
37238;BME280;23129;49.662;8.448;2024-01-30T11:23:26;102166.38;;;10.32;100.00
37238;BME280;23129;49.662;8.448;2024-01-30T11:25:55;102165.50;;;10.38;100.00
37238;BME280;23129;49.662;8.448;2024-01-30T11:28:25;102168.94;;;10.26;100.00
37238;BME280;23129;49.662;8.448;2024-01-30T11:31:05;102165.44;;;10.02;100.00
37238;BME280;23129;49.662;8.448;2024-01-30T11:33:35;102159.25;;;9.82;100.00
37238;BME280;23129;49.662;8.448;2024-01-30T11:36:05;102155.69;;;9.63;100.00
37238;BME280;23129;49.662;8.448;2024-01-30T11:38:35;102146.91;;;9.47;100.00
37238;BME280;23129;49.662;8.448;2024-01-30T11:41:04;102145.97;;;9.34;100.00
37238;BME280;23129;49.662;8.448;2024-01-30T11:43:33;102141.56;;;9.26;100.00
37238;BME280;23129;49.662;8.448;2024-01-30T11:46:04;102131.03;;;9.17;100.00
37238;BME280;23129;49.662;8.448;2024-01-30T11:48:34;102120.53;;;9.10;100.00
37238;BME280;23129;49.662;8.448;2024-01-30T11:51:03;102117.88;;;9.06;100.00
37238;BME280;23129;49.662;8.448;2024-01-30T11:53:32;102116.19;;;9.06;100.00
37238;BME280;23129;49.662;8.448;2024-01-30T11:56:00;102104.81;;;9.04;100.00
37238;BME280;23129;49.662;8.448;2024-01-30T11:58:29;102102.19;;;9.06;100.00
37238;BME280;23129;49.662;8.448;2024-01-30T12:00:58;102107.44;;;9.12;100.00
37238;BME280;23129;49.662;8.448;2024-01-30T12:03:28;102111.88;;;9.24;100.00
37238;BME280;23129;49.662;8.448;2024-01-30T12:05:57;102118.03;;;9.33;100.00
37238;BME280;23129;49.662;8.448;2024-01-30T12:08:27;102108.47;;;9.40;100.00
37238;BME280;23129;49.662;8.448;2024-01-30T12:10:57;102098.84;;;9.45;100.00
37238;BME280;23129;49.662;8.448;2024-01-30T12:13:29;102101.50;;;9.48;100.00
37238;BME280;23129;49.662;8.448;2024-01-30T12:16:00;102101.53;;;9.51;100.00
37238;BME280;23129;49.662;8.448;2024-01-30T12:18:30;102103.28;;;9.55;100.00
37238;BME280;23129;49.662;8.448;2024-01-30T12:20:59;102093.66;;;9.59;100.00
37238;BME280;23129;49.662;8.448;2024-01-30T12:23:29;102095.44;;;9.65;100.00
37238;BME280;23129;49.662;8.448;2024-01-30T12:25:58;102108.56;;;9.71;100.00
37238;BME280;23129;49.662;8.448;2024-01-30T12:28:26;102115.53;;;9.72;100.00
37238;BME280;23129;49.662;8.448;2024-01-30T12:30:56;102106.81;;;9.73;100.00
37238;BME280;23129;49.662;8.448;2024-01-30T12:33:27;102096.31;;;9.74;100.00
37238;BME280;23129;49.662;8.448;2024-01-30T12:36:03;102105.06;;;9.78;100.00
37238;BME280;23129;49.662;8.448;2024-01-30T12:38:33;102101.59;;;9.83;100.00
37238;BME280;23129;49.662;8.448;2024-01-30T12:41:02;102099.00;;;9.91;100.00
37238;BME280;23129;49.662;8.448;2024-01-30T12:43:33;102102.50;;;10.02;100.00
37238;BME280;23129;49.662;8.448;2024-01-30T12:46:06;102102.50;;;10.10;100.00
37238;BME280;23129;49.662;8.448;2024-01-30T12:48:37;102090.28;;;10.15;100.00
37238;BME280;23129;49.662;8.448;2024-01-30T12:51:09;102093.78;;;10.22;100.00
37238;BME280;23129;49.662;8.448;2024-01-30T12:53:38;102101.63;;;10.25;100.00
37238;BME280;23129;49.662;8.448;2024-01-30T12:56:07;102102.53;;;10.35;100.00
37238;BME280;23129;49.662;8.448;2024-01-30T12:58:37;102099.91;;;10.55;100.00
37238;BME280;23129;49.662;8.448;2024-01-30T13:01:05;102097.25;;;10.73;100.00
37238;BME280;23129;49.662;8.448;2024-01-30T13:03:36;102093.72;;;10.99;100.00
37238;BME280;23129;49.662;8.448;2024-01-30T13:06:05;102089.22;;;11.28;100.00
37238;BME280;23129;49.662;8.448;2024-01-30T13:08:36;102091.75;;;11.47;100.00
37238;BME280;23129;49.662;8.448;2024-01-30T13:11:05;102083.75;;;11.68;100.00